Home PIREPS Pireps

Flight FL7044

  • Submitted By: Dmitriy Kozyrev
  • Departure Airport: Tromso (ENTC)
  • Arrival Airport: Bergen Flesland (ENBR)
  • Aircraft: DHC-8 402 (G-ECOK)
  • Flight Time: 03.08
  • Date Submitted: 26/01/2017
  • Route: AMIMO Z156 GUBAV Z101 TUXOT Z108 NONVU P5 OSMUM Z286 LUNUR
  • Status: Accepted
Flight Details
Gross Revenue:
(55 load / € 0.00 per unit
€ 0.00
Fuel Cost:
(2461 fuel used @ 0 / unit)
€ 0.00

Additional Log Information:

View Log

Aircraft Used in flight is MJC8Q400_UKV-NORD
08:05 Brakes are On
08:38 Brakes are Released
08:41 Brakes are On
08:45 Brakes are Released
08:49 You Took off @ 143 Knots and Flaps at Position 1
Departure Weather
ENTC 260520Z VRB02KT 9999 -DZ FEW008 SCT018 BKN023 02/00 Q1002 RMK WIND 2600FT 32018KTrn
08:49 You are Airborne and your Beacons are off
08:49 Landing Gear Up @ 147 Knots and 100 Feet
08:52 Below Fl100 you need to turn on the landing lights
08:52 Below FL100 you need to turn on the landing lights
10:48 Above FL100 you need to switch of the landing lights
10:48 Above FL100 you need to switch of the landing lights
11:05 Landing Gear Down @ 186 Knots and 2970 Feet
11:10 You Landed @ 111 Knots and with 50 Vertical Speed
Arrival Weather
ENBR 260750Z 16017KT 9999 FEW015 BKN025 05/01 Q1024 NOSIG RMK WIND 1200FT 15028KTrn
11:10 Paused
11:13 Unpaused
11:14 Brakes are On
11:17 Brussels Bel-Track1.0.1.2

Route Map

Corporate About Us Our Team Vacancies Information Fleet Route Network Rules and Regulations Operations Flight Schedules Event Center Tours Partners IVAO Vatsim Acars dev FSCB

fb Users Online No pilots online!
0 Pilot(s) and 129 Guest(s) Online
CMS by phpVMS - Design by Crazycreatives.com - Copyright © 2018 - Brussels Airlines Virtual